Barber, North Carolina
Current Conditions -  °F | °C
As of 7:10 AM on Monday 24 Nov 2014 (Local Time) from KRUQ Reporting Station
Broken Clouds Broken Clouds  
Wind Chill: 59°   Ceiling: 3700
Heat Index: 59°   Visibility: 10mi
Dew Point: 55°   Wind: 12mph
Humidity: 85%   Direction: 200°SSW
Pressure: 29.77"   Gusts: 17mph
Location:  35.7427°N, 80.712°W
Report Text: KRUQ 241210Z AUTO 20010G15KT 10SM BKN037 15/13 A2977 RMK AO2 T01520127
Loading
Personal Weather Stations






























Interactive Weather Map New forecast layout! Learn more

10-Day Weather Forecast

Advertisements
Track Severe Weather on mobile